createdAt,value
2023-04-17T00:00:50.255Z,101852.75
2023-04-17T00:03:14.261Z,101852.69
2023-04-17T00:05:38.368Z,101856.75
2023-04-17T00:08:03.455Z,101858.22
2023-04-17T00:10:27.280Z,101863.22
2023-04-17T00:12:51.212Z,101857.75
2023-04-17T00:15:14.764Z,101861.72
2023-04-17T00:17:38.444Z,101862.72
2023-04-17T00:20:02.022Z,101854.94
2023-04-17T00:22:25.949Z,101862.66
2023-04-17T00:24:50.883Z,101853.25
2023-04-17T00:27:14.574Z,101851.72
2023-04-17T00:29:38.522Z,101856.66
2023-04-17T00:32:02.184Z,101853.88
2023-04-17T00:34:25.894Z,101859.41
2023-04-17T00:36:49.622Z,101858.13
2023-04-17T00:39:13.534Z,101854.53
2023-04-17T00:41:38.766Z,101856.47
2023-04-17T00:44:02.387Z,101849.41
2023-04-17T00:46:26.122Z,101848.63
2023-04-17T00:48:50.882Z,101854.38
2023-04-17T00:51:14.648Z,101862.50
2023-04-17T00:53:38.388Z,101858.34
2023-04-17T00:56:04.478Z,101857.22
2023-04-17T00:58:29.729Z,101855.09
2023-04-17T01:00:54.167Z,101858.38
2023-04-17T01:03:18.163Z,101861.97
2023-04-17T01:05:42.994Z,101860.34
2023-04-17T01:08:06.922Z,101862.84
2023-04-17T01:10:30.520Z,101858.34
2023-04-17T01:13:03.878Z,101864.16
2023-04-17T01:15:29.636Z,101858.22
2023-04-17T01:17:53.196Z,101860.72
2023-04-17T01:20:17.107Z,101854.28
2023-04-17T01:22:40.649Z,101859.38
2023-04-17T01:25:06.920Z,101853.22
2023-04-17T01:27:33.092Z,101853.97
2023-04-17T01:29:56.759Z,101862.19
2023-04-17T01:32:20.758Z,101864.38
2023-04-17T01:34:44.574Z,101861.06
2023-04-17T01:37:08.182Z,101859.66
2023-04-17T01:39:31.855Z,101858.63
2023-04-17T01:41:56.804Z,101864.03
2023-04-17T01:44:20.764Z,101862.75
2023-04-17T01:46:44.300Z,101866.38
2023-04-17T01:49:08.017Z,101864.84
2023-04-17T01:51:31.547Z,101867.50
2023-04-17T01:53:55.420Z,101861.25
2023-04-17T01:56:18.949Z,101867.53
2023-04-17T01:58:44.057Z,101866.22
2023-04-17T02:01:07.771Z,101873.09
2023-04-17T02:03:32.054Z,101869.75
2023-04-17T02:05:55.735Z,101868.03
2023-04-17T02:08:19.399Z,101865.44
2023-04-17T02:10:43.119Z,101871.09
2023-04-17T02:13:08.029Z,101881.56
2023-04-17T02:15:32.921Z,101878.97
2023-04-17T02:17:56.661Z,101872.28
2023-04-17T02:20:20.314Z,101877.31
2023-04-17T02:22:43.948Z,101878.97
2023-04-17T02:25:07.950Z,101889.19
2023-04-17T02:27:31.917Z,101875.97
2023-04-17T02:29:55.496Z,101878.56
2023-04-17T02:32:20.798Z,101883.75
2023-04-17T02:34:45.187Z,101880.31
2023-04-17T02:37:11.530Z,101879.28
2023-04-17T02:39:35.291Z,101878.63
2023-04-17T02:41:59.184Z,101878.59
2023-04-17T02:44:22.717Z,101880.47
2023-04-17T02:46:46.332Z,101880.78
2023-04-17T02:49:12.450Z,101887.19
2023-04-17T02:51:36.696Z,101883.75
2023-04-17T02:54:00.319Z,101878.88
2023-04-17T02:56:23.964Z,101888.75
2023-04-17T02:58:47.477Z,101888.84
2023-04-17T03:01:11.143Z,101888.78
2023-04-17T03:03:42.201Z,101884.84
2023-04-17T03:06:10.876Z,101887.78
2023-04-17T03:08:35.730Z,101882.34
2023-04-17T03:10:59.905Z,101887.06
2023-04-17T03:13:24.220Z,101893.34
2023-04-17T03:15:49.276Z,101891.25
2023-04-17T03:18:12.875Z,101897.91
2023-04-17T03:20:36.566Z,101893.97
2023-04-17T03:23:01.500Z,101898.44
2023-04-17T03:25:25.215Z,101906.41
2023-04-17T03:27:49.584Z,101905.91
2023-04-17T03:30:15.656Z,101904.19
2023-04-17T03:32:43.447Z,101898.97
2023-04-17T03:35:07.708Z,101909.22
2023-04-17T03:37:32.042Z,101914.69
2023-04-17T03:39:57.120Z,101919.53
2023-04-17T03:42:22.309Z,101912.00
2023-04-17T03:44:46.692Z,101913.59
2023-04-17T03:47:12.274Z,101926.41
2023-04-17T03:49:38.142Z,101918.25
2023-04-17T03:52:03.750Z,101918.09
2023-04-17T03:54:29.293Z,101919.78
2023-04-17T03:56:54.967Z,101920.94
2023-04-17T03:59:19.485Z,101919.47
2023-04-17T04:01:44.785Z,101922.91
2023-04-17T04:04:16.162Z,101927.19
2023-04-17T04:06:41.116Z,101928.53
2023-04-17T04:09:06.680Z,101933.75
2023-04-17T04:11:30.224Z,101939.38
2023-04-17T04:13:55.284Z,101943.50
2023-04-17T04:16:19.050Z,101951.56
2023-04-17T04:18:43.401Z,101949.38
2023-04-17T04:21:08.200Z,101943.28
2023-04-17T04:23:37.684Z,101950.38
2023-04-17T04:26:02.701Z,101945.16
2023-04-17T04:28:49.448Z,101952.53
2023-04-17T04:31:30.672Z,101956.34
2023-04-17T04:33:58.879Z,101957.13
2023-04-17T04:36:25.190Z,101957.47
2023-04-17T04:39:02.126Z,101958.38
2023-04-17T04:41:33.873Z,101959.22
2023-04-17T04:43:59.625Z,101959.31
2023-04-17T04:46:23.896Z,101959.97
2023-04-17T04:48:49.189Z,101961.50
2023-04-17T04:51:12.980Z,101960.25
2023-04-17T04:53:37.375Z,101969.41
2023-04-17T04:56:01.028Z,101962.41
2023-04-17T04:58:29.471Z,101954.63
2023-04-17T05:00:56.772Z,101963.41
2023-04-17T05:03:27.122Z,101964.16
2023-04-17T05:05:52.360Z,101957.00
2023-04-17T05:08:18.828Z,101965.56
2023-04-17T05:10:51.090Z,101962.16
2023-04-17T05:13:14.904Z,101973.56
2023-04-17T05:15:38.596Z,101970.75
2023-04-17T05:18:02.742Z,101981.59
2023-04-17T05:20:29.301Z,101986.25
2023-04-17T05:22:56.777Z,101994.00
2023-04-17T05:25:20.876Z,101987.66
2023-04-17T05:27:44.526Z,101989.00
2023-04-17T05:30:11.271Z,101995.44
2023-04-17T05:32:35.686Z,102004.47
2023-04-17T05:35:20.312Z,101995.19
2023-04-17T05:37:45.946Z,101998.25
2023-04-17T05:40:11.994Z,102001.59
2023-04-17T05:42:35.773Z,101999.13
2023-04-17T05:45:00.034Z,102010.22
2023-04-17T05:47:23.750Z,102005.16
2023-04-17T05:49:48.679Z,102010.16
2023-04-17T05:52:12.384Z,102017.41
2023-04-17T05:54:39.666Z,102009.66
2023-04-17T05:57:06.671Z,102014.97
2023-04-17T05:59:30.667Z,102015.25
2023-04-17T06:01:55.210Z,102012.72
2023-04-17T06:04:19.500Z,102021.22
2023-04-17T06:06:47.113Z,102019.06
2023-04-17T06:09:12.350Z,102017.34
2023-04-17T06:11:37.410Z,102022.38
2023-04-17T06:14:02.611Z,102012.50
2023-04-17T06:16:26.585Z,102019.19
2023-04-17T06:18:50.216Z,102020.00
2023-04-17T06:21:13.779Z,102023.94
2023-04-17T06:23:37.883Z,102016.63
2023-04-17T06:26:01.782Z,102020.31
2023-04-17T06:28:25.677Z,102027.25
2023-04-17T06:30:52.607Z,102016.66
2023-04-17T06:33:16.592Z,102021.88
2023-04-17T06:35:40.912Z,102032.44
2023-04-17T06:38:21.789Z,102031.16
2023-04-17T06:40:46.494Z,102031.75
2023-04-17T06:43:10.095Z,102040.69
2023-04-17T06:45:35.809Z,102033.38
2023-04-17T06:48:04.331Z,102034.25
2023-04-17T06:50:29.922Z,102038.03
2023-04-17T06:52:53.492Z,102034.09
2023-04-17T06:55:17.098Z,102039.22
2023-04-17T06:57:40.696Z,102039.03
2023-04-17T07:00:04.786Z,102043.28
2023-04-17T07:02:28.526Z,102050.81
2023-04-17T07:04:54.904Z,102047.31
2023-04-17T07:07:18.761Z,102051.59
2023-04-17T07:09:42.982Z,102057.47
2023-04-17T07:12:06.726Z,102055.75
2023-04-17T07:14:30.627Z,102055.72
2023-04-17T07:16:54.188Z,102052.69
2023-04-17T07:19:18.010Z,102058.13
2023-04-17T07:21:43.083Z,102058.53
2023-04-17T07:24:07.241Z,102065.94
2023-04-17T07:26:30.902Z,102061.38
2023-04-17T07:28:54.574Z,102058.72
2023-04-17T07:31:18.242Z,102066.53
2023-04-17T07:33:41.968Z,102067.91
2023-04-17T07:36:08.456Z,102064.25
2023-04-17T07:38:34.182Z,102059.78
2023-04-17T07:40:57.727Z,102073.97
2023-04-17T07:43:21.290Z,102070.97
2023-04-17T07:45:44.834Z,102076.47
2023-04-17T07:48:08.490Z,102081.34
2023-04-17T07:50:32.591Z,102076.78
2023-04-17T07:52:57.227Z,102083.78
2023-04-17T07:55:22.452Z,102087.25
2023-04-17T07:57:46.584Z,102078.81
2023-04-17T08:00:13.663Z,102083.50
2023-04-17T08:02:38.539Z,102087.50
2023-04-17T08:05:02.265Z,102090.56
2023-04-17T08:07:25.967Z,102096.66
2023-04-17T08:09:51.158Z,102089.78
2023-04-17T08:12:16.137Z,102090.50
2023-04-17T08:14:40.812Z,102090.66
2023-04-17T08:17:04.768Z,102088.34
2023-04-17T08:19:28.462Z,102090.56
2023-04-17T08:21:52.765Z,102088.34
2023-04-17T08:24:19.199Z,102093.00
2023-04-17T08:26:43.481Z,102091.81
2023-04-17T08:29:08.410Z,102096.81
2023-04-17T08:31:32.343Z,102101.88
2023-04-17T08:34:06.613Z,102110.25
2023-04-17T08:36:34.438Z,102110.81
2023-04-17T08:38:57.962Z,102108.66
2023-04-17T08:41:25.237Z,102112.41
2023-04-17T08:43:51.328Z,102111.28
2023-04-17T08:46:17.493Z,102108.88
2023-04-17T08:48:41.113Z,102103.94
2023-04-17T08:51:04.953Z,102107.91
2023-04-17T08:53:28.491Z,102106.72
2023-04-17T08:55:52.186Z,102104.38
2023-04-17T08:58:16.032Z,102109.97
2023-04-17T09:00:41.714Z,102109.19
2023-04-17T09:03:08.991Z,102113.72
2023-04-17T09:05:34.466Z,102116.84
2023-04-17T09:08:11.380Z,102112.03
2023-04-17T09:10:40.217Z,102110.50
2023-04-17T09:13:03.820Z,102113.13
2023-04-17T09:15:27.523Z,102118.22
2023-04-17T09:17:51.147Z,102116.16
2023-04-17T09:20:17.421Z,102123.56
2023-04-17T09:22:42.441Z,102124.84
2023-04-17T09:25:08.558Z,102109.84
2023-04-17T09:27:32.490Z,102127.59
2023-04-17T09:30:04.440Z,102115.81
2023-04-17T09:32:28.602Z,102123.16
2023-04-17T09:34:53.131Z,102117.09
2023-04-17T09:37:18.098Z,102121.94
2023-04-17T09:39:57.698Z,102115.34
2023-04-17T09:42:21.281Z,102122.50
2023-04-17T09:44:45.095Z,102118.00
2023-04-17T09:47:11.386Z,102119.28
2023-04-17T09:49:40.579Z,102122.72
2023-04-17T09:52:05.492Z,102126.50
2023-04-17T09:54:32.865Z,102124.69
2023-04-17T09:56:57.770Z,102122.13
2023-04-17T09:59:23.383Z,102121.63
2023-04-17T10:01:47.714Z,102119.84
2023-04-17T10:04:12.052Z,102126.06
2023-04-17T10:06:37.200Z,102127.00
2023-04-17T10:09:00.940Z,102126.88
2023-04-17T10:11:30.000Z,102133.84
2023-04-17T10:14:05.855Z,102129.28
2023-04-17T10:16:37.189Z,102128.50
2023-04-17T10:19:29.835Z,102123.16
2023-04-17T10:22:31.251Z,102123.94
2023-04-17T10:25:19.492Z,102125.97
2023-04-17T10:27:53.502Z,102111.09
2023-04-17T10:30:17.750Z,102118.25
2023-04-17T10:32:43.324Z,102122.59
2023-04-17T10:35:39.954Z,102114.97
2023-04-17T10:38:08.815Z,102114.06
2023-04-17T10:40:34.364Z,102108.78
2023-04-17T10:43:08.478Z,102121.00
2023-04-17T10:45:57.527Z,102113.41
2023-04-17T10:48:23.324Z,102110.13
2023-04-17T10:50:47.253Z,102109.97
2023-04-17T10:53:42.214Z,102124.06
2023-04-17T10:56:06.246Z,102115.53
2023-04-17T10:58:32.180Z,102117.63
2023-04-17T11:00:55.983Z,102115.28
2023-04-17T11:03:19.631Z,102114.16
2023-04-17T11:05:46.942Z,102108.88
2023-04-17T11:08:11.744Z,102110.16
2023-04-17T11:10:38.020Z,102108.44
2023-04-17T11:13:01.609Z,102118.47
2023-04-17T11:15:31.190Z,102108.09
2023-04-17T11:17:56.175Z,102116.66
2023-04-17T11:20:23.293Z,102125.06
2023-04-17T11:22:47.095Z,102116.53
2023-04-17T11:25:20.569Z,102115.53
2023-04-17T11:27:44.177Z,102125.38
2023-04-17T11:30:09.733Z,102113.81
2023-04-17T11:32:38.888Z,102125.25
2023-04-17T11:35:02.480Z,102120.03
2023-04-17T11:37:26.037Z,102124.00
2023-04-17T11:39:49.695Z,102127.50
2023-04-17T11:42:13.367Z,102122.34
2023-04-17T11:44:37.049Z,102124.13
2023-04-17T11:47:01.010Z,102127.41
2023-04-17T11:49:30.627Z,102123.09
2023-04-17T11:51:54.384Z,102127.91
2023-04-17T11:54:26.515Z,102123.34
2023-04-17T11:57:01.496Z,102123.03
2023-04-17T11:59:32.480Z,102129.81
2023-04-17T12:01:56.571Z,102127.72
2023-04-17T12:04:22.411Z,102138.69
2023-04-17T12:06:47.523Z,102138.28
2023-04-17T12:09:21.778Z,102128.00
2023-04-17T12:11:45.738Z,102139.75
2023-04-17T12:14:12.682Z,102137.50
2023-04-17T12:16:37.005Z,102140.00
2023-04-17T12:19:01.087Z,102134.28
2023-04-17T12:21:25.540Z,102134.59
2023-04-17T12:23:51.404Z,102145.72
2023-04-17T12:26:15.470Z,102151.88
2023-04-17T12:28:39.533Z,102153.94
2023-04-17T12:31:04.061Z,102160.81
2023-04-17T12:33:27.631Z,102163.72
2023-04-17T12:35:51.535Z,102159.75
2023-04-17T12:38:15.268Z,102162.66
2023-04-17T12:40:43.238Z,102168.75
2023-04-17T12:43:08.393Z,102168.50
2023-04-17T12:45:33.690Z,102174.78
2023-04-17T12:47:57.335Z,102175.69
2023-04-17T12:50:21.005Z,102175.00
2023-04-17T12:52:44.549Z,102175.50
2023-04-17T12:55:09.657Z,102182.97
2023-04-17T12:57:35.526Z,102179.66
2023-04-17T12:59:59.219Z,102178.28
2023-04-17T13:02:23.891Z,102177.81
2023-04-17T13:04:47.948Z,102172.91
2023-04-17T13:07:13.413Z,102179.88
2023-04-17T13:09:37.049Z,102175.28
2023-04-17T13:12:01.529Z,102177.06
2023-04-17T13:14:26.712Z,102179.56
2023-04-17T13:16:50.950Z,102183.63
2023-04-17T13:19:15.117Z,102178.97
2023-04-17T13:21:38.980Z,102182.13
2023-04-17T13:24:02.580Z,102179.66
2023-04-17T13:26:26.266Z,102179.66
2023-04-17T13:28:49.866Z,102185.03
2023-04-17T13:31:14.918Z,102191.03
2023-04-17T13:33:40.265Z,102184.34
2023-04-17T13:36:03.823Z,102186.97
2023-04-17T13:38:27.568Z,102189.25
2023-04-17T13:40:51.117Z,102180.81
2023-04-17T13:43:14.718Z,102186.84
2023-04-17T13:45:38.381Z,102189.66
2023-04-17T13:48:03.580Z,102190.94
2023-04-17T13:50:27.176Z,102188.25
2023-04-17T13:52:51.065Z,102188.72
2023-04-17T13:55:14.748Z,102189.44
2023-04-17T13:57:38.500Z,102182.72
2023-04-17T14:00:02.083Z,102182.06
2023-04-17T14:02:28.358Z,102187.88
2023-04-17T14:04:53.644Z,102182.19
2023-04-17T14:07:18.471Z,102191.47
2023-04-17T14:09:42.132Z,102190.91
2023-04-17T14:12:06.094Z,102192.91
2023-04-17T14:14:29.655Z,102190.16
2023-04-17T14:16:53.343Z,102185.16
2023-04-17T14:19:17.206Z,102188.75
2023-04-17T14:21:42.578Z,102184.91
2023-04-17T14:24:06.766Z,102188.09
2023-04-17T14:26:30.565Z,102187.66
2023-04-17T14:28:54.256Z,102187.16
2023-04-17T14:31:17.951Z,102199.50
2023-04-17T14:33:41.569Z,102196.88
2023-04-17T14:36:06.047Z,102188.56
2023-04-17T14:38:31.215Z,102189.91
2023-04-17T14:40:55.108Z,102192.63
2023-04-17T14:43:18.837Z,102198.00
2023-04-17T14:45:42.568Z,102191.38
2023-04-17T14:48:07.185Z,102199.03
2023-04-17T14:50:31.074Z,102193.13
2023-04-17T14:52:55.914Z,102193.03
2023-04-17T14:55:21.786Z,102192.69
2023-04-17T14:57:45.637Z,102194.50
2023-04-17T15:00:10.761Z,102192.06
2023-04-17T15:02:38.544Z,102196.22
2023-04-17T15:05:02.711Z,102191.13
2023-04-17T15:07:26.477Z,102200.91
2023-04-17T15:09:50.098Z,102190.47
2023-04-17T15:12:15.006Z,102202.56
2023-04-17T15:14:38.627Z,102193.91
2023-04-17T15:17:03.245Z,102197.22
2023-04-17T15:19:27.030Z,102195.72
2023-04-17T15:21:50.822Z,102195.50
2023-04-17T15:24:14.531Z,102200.81
2023-04-17T15:26:38.129Z,102200.97
2023-04-17T15:29:03.742Z,102193.72
2023-04-17T15:31:27.356Z,102197.06
2023-04-17T15:33:51.068Z,102199.38
2023-04-17T15:36:14.681Z,102197.84
2023-04-17T15:38:38.367Z,102197.66
2023-04-17T15:41:03.667Z,102196.00
2023-04-17T15:43:28.097Z,102199.91
2023-04-17T15:45:53.614Z,102206.25
2023-04-17T15:48:17.296Z,102203.38
2023-04-17T15:50:40.964Z,102203.31
2023-04-17T15:53:04.616Z,102202.97
2023-04-17T15:55:28.308Z,102207.66
2023-04-17T15:57:52.053Z,102200.72
2023-04-17T16:00:16.907Z,102201.41
2023-04-17T16:02:42.088Z,102203.41
2023-04-17T16:05:06.447Z,102208.22
2023-04-17T16:07:30.322Z,102206.81
2023-04-17T16:09:53.860Z,102211.69
2023-04-17T16:12:17.508Z,102214.78
2023-04-17T16:14:41.062Z,102209.16
2023-04-17T16:17:04.947Z,102207.59
2023-04-17T16:19:30.547Z,102213.06
2023-04-17T16:21:54.200Z,102218.16
2023-04-17T16:24:17.744Z,102206.13
2023-04-17T16:26:42.755Z,102211.09
2023-04-17T16:29:06.372Z,102211.94
2023-04-17T16:31:30.005Z,102213.63
2023-04-17T16:33:53.854Z,102214.72
2023-04-17T16:36:19.002Z,102215.97
2023-04-17T16:38:42.588Z,102214.03
2023-04-17T16:41:06.395Z,102221.41
2023-04-17T16:43:30.464Z,102217.72
2023-04-17T16:45:54.173Z,102220.47
2023-04-17T16:48:17.892Z,102227.81
2023-04-17T16:50:42.190Z,102218.25
2023-04-17T16:53:07.320Z,102215.81
2023-04-17T16:55:30.973Z,102216.84
2023-04-17T16:57:55.700Z,102221.44
2023-04-17T17:00:19.930Z,102223.22
2023-04-17T17:02:43.834Z,102230.88
2023-04-17T17:05:09.390Z,102226.72
2023-04-17T17:07:34.287Z,102224.66
2023-04-17T17:10:01.205Z,102224.91
2023-04-17T17:12:26.757Z,102228.75
2023-04-17T17:14:52.493Z,102228.50
2023-04-17T17:17:16.229Z,102225.78
2023-04-17T17:19:40.991Z,102232.97
2023-04-17T17:22:05.988Z,102232.31
2023-04-17T17:24:31.381Z,102239.75
2023-04-17T17:26:57.184Z,102233.34
2023-04-17T17:29:21.028Z,102240.13
2023-04-17T17:31:52.149Z,102234.19
2023-04-17T17:34:26.190Z,102244.69
2023-04-17T17:36:50.562Z,102244.06
2023-04-17T17:39:14.187Z,102245.75
2023-04-17T17:41:38.005Z,102242.81
2023-04-17T17:44:02.976Z,102245.72
2023-04-17T17:46:27.848Z,102252.19
2023-04-17T17:48:51.491Z,102244.84
2023-04-17T17:51:15.250Z,102237.22
2023-04-17T17:53:38.744Z,102245.59
2023-04-17T17:56:02.651Z,102253.94
2023-04-17T17:58:27.315Z,102255.97
2023-04-17T18:00:52.480Z,102247.28
2023-04-17T18:03:16.883Z,102259.06
2023-04-17T18:05:40.801Z,102260.72
2023-04-17T18:08:04.373Z,102258.81
2023-04-17T18:10:30.882Z,102253.94
2023-04-17T18:12:54.587Z,102259.91
2023-04-17T18:15:18.824Z,102260.09
2023-04-17T18:17:43.785Z,102257.19
2023-04-17T18:20:09.215Z,102254.72
2023-04-17T18:22:32.839Z,102266.75
2023-04-17T18:24:56.830Z,102262.38
2023-04-17T18:27:20.456Z,102263.13
2023-04-17T18:29:44.089Z,102264.63
2023-04-17T18:32:07.733Z,102268.59
2023-04-17T18:34:32.739Z,102270.94
2023-04-17T18:36:58.498Z,102274.81
2023-04-17T18:39:22.140Z,102265.72
2023-04-17T18:41:45.664Z,102269.75
2023-04-17T18:44:09.267Z,102269.31
2023-04-17T18:46:33.387Z,102270.19
2023-04-17T18:48:57.246Z,102274.25
2023-04-17T18:51:22.175Z,102278.44
2023-04-17T18:53:47.021Z,102281.66
2023-04-17T18:56:11.393Z,102287.75
2023-04-17T18:58:35.201Z,102281.22
2023-04-17T19:01:00.882Z,102283.94
2023-04-17T19:03:25.571Z,102287.78
2023-04-17T19:05:49.529Z,102279.66
2023-04-17T19:08:14.956Z,102288.56
2023-04-17T19:10:40.108Z,102288.47
2023-04-17T19:13:05.380Z,102287.94
2023-04-17T19:15:28.979Z,102285.59
2023-04-17T19:17:52.816Z,102284.53
2023-04-17T19:20:16.926Z,102288.72
2023-04-17T19:22:40.597Z,102283.50
2023-04-17T19:25:06.192Z,102285.03
2023-04-17T19:27:29.855Z,102281.69
2023-04-17T19:29:53.453Z,102280.75
2023-04-17T19:32:17.199Z,102288.88
2023-04-17T19:34:41.263Z,102280.84
2023-04-17T19:37:05.287Z,102284.53
2023-04-17T19:39:29.095Z,102277.16
2023-04-17T19:41:54.058Z,102278.81
2023-04-17T19:44:17.696Z,102281.72
2023-04-17T19:46:42.637Z,102279.03
2023-04-17T19:49:06.597Z,102284.41
2023-04-17T19:51:30.191Z,102289.25
2023-04-17T19:53:54.381Z,102287.72
2023-04-17T19:56:18.095Z,102284.88
2023-04-17T19:58:43.478Z,102284.84
2023-04-17T20:01:07.478Z,102283.06
2023-04-17T20:03:32.455Z,102285.69
2023-04-17T20:05:57.894Z,102289.31
2023-04-17T20:08:21.904Z,102289.47
2023-04-17T20:10:45.580Z,102289.38
2023-04-17T20:13:11.799Z,102284.09
2023-04-17T20:15:36.965Z,102285.38
2023-04-17T20:18:00.848Z,102280.31
2023-04-17T20:20:24.822Z,102286.31
2023-04-17T20:22:48.416Z,102278.81
2023-04-17T20:25:12.028Z,102276.28
2023-04-17T20:27:35.589Z,102280.50
2023-04-17T20:29:59.180Z,102274.47
2023-04-17T20:32:24.455Z,102269.03
2023-04-17T20:34:48.219Z,102281.06
2023-04-17T20:37:11.831Z,102266.28
2023-04-17T20:39:35.451Z,102270.13
2023-04-17T20:41:59.019Z,102267.97
2023-04-17T20:44:22.754Z,102266.81
2023-04-17T20:46:46.709Z,102267.88
2023-04-17T20:49:11.925Z,102263.97
2023-04-17T20:51:35.707Z,102272.16
2023-04-17T20:53:59.344Z,102270.03
2023-04-17T20:56:23.919Z,102277.16
2023-04-17T20:58:47.643Z,102274.03
2023-04-17T21:01:11.203Z,102270.22
2023-04-17T21:03:35.040Z,102277.44
2023-04-17T21:06:00.039Z,102282.50
2023-04-17T21:08:23.788Z,102273.53
2023-04-17T21:10:47.286Z,102278.28
2023-04-17T21:13:10.957Z,102280.03
2023-04-17T21:15:34.550Z,102284.88
2023-04-17T21:17:58.249Z,102286.91
2023-04-17T21:20:21.823Z,102284.09
2023-04-17T21:22:47.110Z,102295.31
2023-04-17T21:25:11.519Z,102288.22
2023-04-17T21:27:36.313Z,102286.25
2023-04-17T21:30:00.542Z,102292.75
2023-04-17T21:32:24.622Z,102283.22
2023-04-17T21:34:48.318Z,102285.56
2023-04-17T21:37:11.956Z,102289.69
2023-04-17T21:39:37.415Z,102285.03
2023-04-17T21:42:01.989Z,102289.16
2023-04-17T21:44:25.707Z,102285.50
2023-04-17T21:46:49.319Z,102297.03
2023-04-17T21:49:12.863Z,102290.56
2023-04-17T21:51:36.441Z,102293.97
2023-04-17T21:54:00.156Z,102304.97
2023-04-17T21:56:25.236Z,102295.56
2023-04-17T21:58:48.757Z,102299.25
2023-04-17T22:01:12.536Z,102301.88
2023-04-17T22:03:36.379Z,102299.25
2023-04-17T22:06:00.024Z,102303.47
2023-04-17T22:08:23.604Z,102308.94
2023-04-17T22:10:47.225Z,102313.75
2023-04-17T22:13:12.343Z,102304.81
2023-04-17T22:15:36.091Z,102313.09
2023-04-17T22:18:00.142Z,102312.66
2023-04-17T22:20:23.791Z,102309.91
2023-04-17T22:22:48.295Z,102306.28
2023-04-17T22:25:11.896Z,102307.34
2023-04-17T22:27:35.470Z,102309.81
2023-04-17T22:30:00.569Z,102311.84
2023-04-17T22:32:24.101Z,102317.88
2023-04-17T22:34:49.469Z,102315.66
2023-04-17T22:37:12.980Z,102311.03
2023-04-17T22:39:36.761Z,102319.00
2023-04-17T22:42:01.154Z,102320.88
2023-04-17T22:44:24.735Z,102309.81
2023-04-17T22:46:49.674Z,102322.63
2023-04-17T22:49:14.843Z,102319.13
2023-04-17T22:51:38.347Z,102323.72
2023-04-17T22:54:11.614Z,102319.13
2023-04-17T22:56:43.264Z,102325.41
2023-04-17T22:59:06.789Z,102321.06
2023-04-17T23:01:30.548Z,102325.78
2023-04-17T23:03:55.505Z,102325.34
2023-04-17T23:06:23.702Z,102331.66
2023-04-17T23:08:47.288Z,102333.91
2023-04-17T23:11:10.929Z,102329.56
2023-04-17T23:13:34.476Z,102329.56
2023-04-17T23:15:58.387Z,102332.41
2023-04-17T23:18:22.103Z,102338.63
2023-04-17T23:20:47.904Z,102335.94
2023-04-17T23:23:11.591Z,102336.47
2023-04-17T23:25:35.288Z,102339.66
2023-04-17T23:27:58.799Z,102329.72
2023-04-17T23:30:22.586Z,102330.81
2023-04-17T23:32:46.195Z,102335.44
2023-04-17T23:35:10.862Z,102328.28
2023-04-17T23:37:35.802Z,102333.44
2023-04-17T23:40:01.312Z,102331.06
2023-04-17T23:42:24.864Z,102334.88
2023-04-17T23:44:48.471Z,102333.59
2023-04-17T23:47:14.348Z,102331.91
2023-04-17T23:49:38.152Z,102331.72
2023-04-17T23:52:01.794Z,102337.25
2023-04-17T23:54:26.824Z,102332.97
2023-04-17T23:56:50.426Z,102335.31
2023-04-17T23:59:14.144Z,102324.28
